Time;durP1;ratioP1;P1;durP2;ratioP2;P2;SDS_P1;SDS_P2;PMS_P1;PMS_P2;Temp;Humidity;BMP_temperature;BMP_pressure;BME280_temperature;BME280_humidity;BME280_pressure;Samples;Min_cycle;Max_cycle;Signal;HPM_P1;HPM_P2
2022/08/15 00:00:18;;;;;;;17.13;7.85;;;24.80;75.20;;;;;;4993689;28;20460;-80
2022/08/15 00:02:47;;;;;;;9.55;7.88;;;24.70;75.50;;;;;;4992525;28;20081;-79
2022/08/15 00:05:18;;;;;;;11.50;6.93;;;24.70;75.90;;;;;;4992325;28;20356;-81
2022/08/15 00:07:44;;;;;;;12.57;7.35;;;24.70;76.20;;;;;;4993993;28;20014;-80
2022/08/15 00:10:10;;;;;;;13.38;7.10;;;24.70;76.80;;;;;;4993392;28;20473;-80
2022/08/15 00:12:39;;;;;;;20.42;7.63;;;24.60;76.90;;;;;;4992633;28;20057;-80
2022/08/15 00:15:14;;;;;;;11.60;7.55;;;24.60;77.20;;;;;;4993580;28;20057;-79
2022/08/15 00:17:41;;;;;;;26.67;7.88;;;24.60;77.50;;;;;;4992570;28;20034;-79
2022/08/15 00:20:10;;;;;;;28.63;8.60;;;24.60;77.50;;;;;;4992634;28;20026;-81
2022/08/15 00:22:44;;;;;;;37.22;9.27;;;24.50;78.10;;;;;;4993641;28;20038;-79
2022/08/15 00:25:10;;;;;;;29.85;8.13;;;24.50;78.20;;;;;;4993507;28;20475;-79
2022/08/15 00:27:36;;;;;;;28.80;8.48;;;24.50;78.30;;;;;;4993432;28;20150;-79
2022/08/15 00:30:03;;;;;;;28.85;7.90;;;24.40;78.80;;;;;;4993704;28;20172;-80
2022/08/15 00:32:32;;;;;;;32.17;8.15;;;24.30;79.20;;;;;;4994069;28;20031;-79
2022/08/15 00:34:59;;;;;;;20.05;8.05;;;24.40;79.20;;;;;;4993733;28;20019;-80
2022/08/15 00:37:25;;;;;;;15.57;8.00;;;24.30;79.30;;;;;;4993816;28;20034;-80
2022/08/15 00:39:51;;;;;;;18.50;8.13;;;24.20;80.10;;;;;;4992994;28;20041;-80
2022/08/15 00:42:20;;;;;;;18.67;9.10;;;24.20;79.90;;;;;;4997120;28;20118;-80
2022/08/15 00:44:46;;;;;;;25.67;7.60;;;24.20;80.30;;;;;;4995676;28;20092;-80
2022/08/15 00:47:15;;;;;;;13.18;7.13;;;24.20;80.10;;;;;;4996544;28;20022;-79
2022/08/15 00:49:43;;;;;;;9.50;7.43;;;24.20;80.80;;;;;;4997204;28;20029;-79
2022/08/15 00:52:15;;;;;;;12.55;7.05;;;24.10;81.10;;;;;;4996941;28;20035;-80
2022/08/15 00:54:46;;;;;;;16.13;8.00;;;24.20;81.40;;;;;;4997084;28;20031;-78
2022/08/15 00:57:20;;;;;;;13.15;8.10;;;24.20;80.60;;;;;;4995797;28;20034;-80
2022/08/15 00:59:52;;;;;;;11.75;7.53;;;24.10;81.80;;;;;;4992503;28;20041;-81
2022/08/15 01:02:21;;;;;;;9.20;7.47;;;24.10;81.70;;;;;;4992356;28;20106;-79
2022/08/15 01:04:47;;;;;;;13.07;7.00;;;24.10;81.80;;;;;;4993065;28;20033;-80
2022/08/15 01:07:14;;;;;;;12.30;7.55;;;24.00;82.00;;;;;;4991414;28;20030;-80
2022/08/15 01:09:40;;;;;;;13.43;7.60;;;24.00;82.50;;;;;;4992284;28;20509;-79
2022/08/15 01:12:26;;;;;;;11.45;7.20;;;24.00;82.60;;;;;;4992241;28;20038;-80
2022/08/15 01:14:57;;;;;;;10.20;7.50;;;24.00;83.00;;;;;;4992286;28;20076;-80
2022/08/15 01:17:26;;;;;;;9.45;7.70;;;24.00;82.80;;;;;;4992141;28;20042;-80
2022/08/15 01:20:05;;;;;;;10.98;7.55;;;23.90;83.40;;;;;;4992540;28;20097;-80
2022/08/15 01:22:47;;;;;;;12.40;7.85;;;23.90;83.80;;;;;;4992425;28;20042;-80
2022/08/15 01:25:31;;;;;;;10.82;7.50;;;23.90;83.80;;;;;;4992485;28;20088;-80
2022/08/15 01:28:04;;;;;;;10.88;7.68;;;23.90;84.00;;;;;;4991923;28;20461;-79
2022/08/15 01:30:50;;;;;;;8.88;7.38;;;23.80;83.60;;;;;;4992109;28;20112;-79
2022/08/15 01:33:16;;;;;;;14.23;7.75;;;23.80;83.90;;;;;;4991920;28;20037;-78
2022/08/15 01:35:45;;;;;;;10.10;7.47;;;23.80;84.20;;;;;;4983671;28;20049;-79
2022/08/15 01:38:49;;;;;;;13.32;7.60;;;23.80;84.40;;;;;;4972284;28;20062;-79
2022/08/15 01:41:58;;;;;;;8.88;7.68;;;23.80;84.70;;;;;;4962235;28;20097;-80
2022/08/15 01:44:43;;;;;;;14.80;8.73;;;23.80;85.40;;;;;;4969108;28;20096;-78
2022/08/15 01:47:38;;;;;;;8.75;7.57;;;23.60;85.10;;;;;;4972103;28;20110;-79
2022/08/15 01:50:18;;;;;;;10.50;7.97;;;23.60;86.10;;;;;;4971714;28;20039;-78
2022/08/15 01:53:15;;;;;;;9.05;7.15;;;23.50;86.60;;;;;;4972345;28;20105;-80
2022/08/15 01:55:49;;;;;;;11.82;7.82;;;23.50;86.80;;;;;;4971092;28;20468;-80
2022/08/15 01:58:15;;;;;;;18.23;8.70;;;23.50;86.80;;;;;;4972238;28;20035;-79
2022/08/15 02:00:54;;;;;;;8.95;6.65;;;23.40;86.60;;;;;;4972050;28;20138;-80
2022/08/15 02:03:21;;;;;;;11.93;8.48;;;23.40;87.00;;;;;;4972550;28;20046;-80
2022/08/15 02:05:47;;;;;;;15.75;8.45;;;23.50;87.00;;;;;;4971983;28;20038;-79
2022/08/15 02:08:12;;;;;;;11.02;7.90;;;23.50;87.40;;;;;;4972039;28;20353;-79
2022/08/15 02:10:43;;;;;;;14.10;8.45;;;23.50;87.80;;;;;;4972383;28;20063;-80
2022/08/15 02:13:09;;;;;;;18.08;9.40;;;23.30;87.90;;;;;;4973580;28;20035;-79
2022/08/15 02:15:35;;;;;;;11.35;8.57;;;23.30;88.20;;;;;;4976029;28;20574;-79
2022/08/15 02:18:00;;;;;;;9.98;8.43;;;23.30;88.10;;;;;;4976234;28;20409;-80
2022/08/15 02:20:26;;;;;;;13.27;9.10;;;23.20;88.80;;;;;;4976284;28;20038;-79
2022/08/15 02:22:55;;;;;;;12.35;9.13;;;23.00;89.80;;;;;;4976399;28;20023;-81
2022/08/15 02:25:21;;;;;;;10.73;8.63;;;23.00;89.70;;;;;;4975824;28;20030;-79
2022/08/15 02:27:49;;;;;;;12.40;9.32;;;23.00;89.70;;;;;;4975916;28;20543;-80
2022/08/15 02:30:17;;;;;;;12.60;8.40;;;23.00;90.10;;;;;;4976051;28;20062;-79
2022/08/15 02:32:43;;;;;;;;;;;23.10;90.20;;;;;;4976313;28;20027;-80
2022/08/15 02:35:16;;;;;;;11.20;8.40;;;23.10;90.00;;;;;;4976006;28;19984;-79
2022/08/15 02:37:45;;;;;;;11.48;9.13;;;23.10;90.10;;;;;;4975274;28;20118;-80
2022/08/15 02:40:14;;;;;;;15.52;8.88;;;23.10;89.90;;;;;;4975558;28;20038;-80
2022/08/15 02:42:42;;;;;;;9.88;8.48;;;23.10;90.00;;;;;;4975608;28;20054;-80
2022/08/15 02:45:10;;;;;;;12.38;8.52;;;23.10;90.00;;;;;;4990817;28;20101;-81
2022/08/15 02:47:37;;;;;;;11.55;8.85;;;23.10;90.40;;;;;;4975477;28;20031;-80
2022/08/15 02:50:05;;;;;;;12.85;9.13;;;23.10;90.20;;;;;;4976379;28;20027;-81
2022/08/15 02:52:32;;;;;;;13.63;8.65;;;23.20;90.20;;;;;;4974675;28;20051;-80
2022/08/15 02:54:59;;;;;;;9.43;8.30;;;23.10;90.50;;;;;;4974419;28;20377;-80
2022/08/15 02:57:26;;;;;;;12.55;9.30;;;23.10;90.10;;;;;;4974146;28;20023;-81
2022/08/15 02:59:51;;;;;;;11.88;8.45;;;23.00;90.20;;;;;;4975485;28;20085;-81
2022/08/15 03:02:17;;;;;;;11.98;8.40;;;23.00;90.10;;;;;;4975502;28;20023;-79
2022/08/15 03:04:43;;;;;;;13.40;9.15;;;23.00;90.50;;;;;;4975578;28;20019;-80
2022/08/15 03:07:09;;;;;;;10.98;8.25;;;22.90;90.50;;;;;;4975135;28;20066;-79
2022/08/15 03:09:35;;;;;;;14.27;9.30;;;22.90;90.40;;;;;;4975086;28;20070;-80
2022/08/15 03:12:01;;;;;;;11.48;8.93;;;22.90;90.50;;;;;;4975406;28;20039;-80
2022/08/15 03:14:26;;;;;;;14.57;9.07;;;22.90;90.50;;;;;;4975446;28;20110;-79
2022/08/15 03:16:52;;;;;;;11.25;8.90;;;23.00;90.10;;;;;;4975849;28;20126;-79
2022/08/15 03:19:22;;;;;;;12.70;9.23;;;23.00;90.20;;;;;;4975357;28;20023;-79
2022/08/15 03:21:48;;;;;;;14.93;9.45;;;23.00;90.30;;;;;;4975110;28;20027;-79
2022/08/15 03:24:15;;;;;;;21.42;10.00;;;22.90;90.70;;;;;;4973615;28;20041;-80
2022/08/15 03:26:45;;;;;;;15.60;9.40;;;23.00;90.80;;;;;;4975447;28;20074;-80
2022/08/15 03:29:16;;;;;;;12.32;8.73;;;23.00;90.70;;;;;;4974164;28;20031;-79
2022/08/15 03:31:44;;;;;;;12.77;9.00;;;23.00;90.80;;;;;;4974337;28;20026;-79
2022/08/15 03:34:12;;;;;;;14.10;8.68;;;22.90;91.00;;;;;;4973831;28;20027;-80
2022/08/15 03:36:40;;;;;;;14.25;9.02;;;22.90;91.10;;;;;;4974728;28;20489;-80
2022/08/15 03:39:05;;;;;;;14.48;9.40;;;22.90;90.90;;;;;;4974980;28;20354;-79
2022/08/15 03:41:31;;;;;;;18.45;9.02;;;23.00;90.90;;;;;;4974626;28;20038;-80
2022/08/15 03:43:57;;;;;;;9.70;8.32;;;23.00;90.90;;;;;;4974921;28;20327;-78
2022/08/15 03:46:23;;;;;;;12.57;9.02;;;23.00;91.00;;;;;;4974483;28;20035;-80
2022/08/15 03:48:52;;;;;;;21.83;9.90;;;23.00;91.00;;;;;;4974293;28;20449;-79
2022/08/15 03:51:20;;;;;;;15.98;8.55;;;23.00;91.10;;;;;;4974295;28;20031;-79
2022/08/15 03:53:49;;;;;;;17.75;10.10;;;23.00;91.20;;;;;;4974691;28;20113;-80
2022/08/15 03:56:19;;;;;;;12.13;9.27;;;23.00;91.00;;;;;;4973279;28;20118;-77
2022/08/15 03:58:46;;;;;;;11.95;9.10;;;23.10;90.90;;;;;;4974553;28;20027;-79
2022/08/15 04:01:17;;;;;;;14.38;8.98;;;23.10;90.50;;;;;;4974044;28;20039;-80
2022/08/15 04:03:45;;;;;;;11.13;8.82;;;23.10;90.70;;;;;;4974207;28;20366;-79
2022/08/15 04:06:14;;;;;;;9.73;8.25;;;23.10;90.50;;;;;;4974532;28;20034;-79
2022/08/15 04:08:40;;;;;;;16.25;9.50;;;23.10;90.70;;;;;;4974306;28;20031;-80
2022/08/15 04:11:07;;;;;;;13.18;9.15;;;23.10;90.70;;;;;;4974951;28;20030;-79
2022/08/15 04:13:33;;;;;;;13.05;8.40;;;23.10;90.50;;;;;;4974428;28;20113;-80
2022/08/15 04:16:01;;;;;;;11.50;8.35;;;23.20;90.20;;;;;;4974410;28;20023;-79
2022/08/15 04:18:28;;;;;;;19.40;10.02;;;23.20;90.40;;;;;;4974266;28;20116;-79
2022/08/15 04:21:08;;;;;;;15.90;8.57;;;23.20;90.30;;;;;;4972960;28;20055;-80
2022/08/15 04:23:35;;;;;;;11.05;8.45;;;23.20;90.60;;;;;;4973654;28;20412;-79
2022/08/15 04:26:01;;;;;;;10.90;8.48;;;23.10;90.50;;;;;;4974021;28;20090;-79
2022/08/15 04:28:31;;;;;;;12.15;8.50;;;23.20;90.40;;;;;;4973906;28;20069;-80
2022/08/15 04:30:58;;;;;;;13.55;8.57;;;23.20;90.40;;;;;;4974154;28;20488;-80
2022/08/15 04:33:27;;;;;;;10.27;8.40;;;23.10;90.80;;;;;;4973898;28;20027;-78
2022/08/15 04:36:10;;;;;;;9.95;8.07;;;23.20;90.60;;;;;;4972769;28;20462;-78
2022/08/15 04:38:41;;;;;;;11.57;8.90;;;23.20;90.50;;;;;;4973515;28;20259;-79
2022/08/15 04:41:09;;;;;;;14.82;9.32;;;23.20;90.50;;;;;;4973020;28;20043;-79
2022/08/15 04:43:35;;;;;;;;;;;23.20;90.30;;;;;;4974261;28;20039;-79
2022/08/15 04:46:01;;;;;;;15.98;9.43;;;23.30;90.50;;;;;;4973493;28;19918;-79
2022/08/15 04:48:27;;;;;;;13.65;8.30;;;23.30;90.20;;;;;;4973609;28;20469;-80
2022/08/15 04:50:56;;;;;;;10.00;7.75;;;23.30;90.10;;;;;;4973518;28;20042;-79
2022/08/15 04:53:25;;;;;;;12.88;7.82;;;23.30;90.10;;;;;;4973421;28;20576;-80
2022/08/15 04:55:52;;;;;;;11.77;7.88;;;23.20;90.10;;;;;;4973773;28;20046;-80
2022/08/15 04:58:18;;;;;;;17.70;7.57;;;23.30;90.00;;;;;;4973326;28;20037;-79
2022/08/15 05:00:54;;;;;;;21.35;8.73;;;23.30;90.00;;;;;;4973408;28;20072;-78
2022/08/15 05:03:20;;;;;;;25.25;9.77;;;23.30;90.20;;;;;;4988490;28;20039;-79
2022/08/15 05:06:02;;;;;;;12.52;8.85;;;23.30;90.30;;;;;;4973293;28;20266;-79
2022/08/15 05:08:30;;;;;;;15.77;8.18;;;23.30;90.20;;;;;;4973609;28;20023;-78
2022/08/15 05:11:18;;;;;;;16.95;8.45;;;23.30;90.10;;;;;;4973265;28;20051;-79
2022/08/15 05:13:45;;;;;;;11.85;7.68;;;23.30;90.10;;;;;;4973284;28;20077;-79
2022/08/15 05:16:11;;;;;;;13.48;7.32;;;23.30;89.70;;;;;;4973169;28;20047;-79
2022/08/15 05:18:40;;;;;;;12.00;8.27;;;23.30;90.00;;;;;;4971627;28;20366;-79
2022/08/15 05:21:08;;;;;;;14.43;7.93;;;23.30;89.80;;;;;;4971661;28;20030;-78
2022/08/15 05:23:36;;;;;;;12.57;7.65;;;23.30;89.50;;;;;;4972566;28;20105;-78
2022/08/15 05:26:05;;;;;;;;;;;23.30;89.80;;;;;;4973478;28;20042;-79
2022/08/15 05:28:30;;;;;;;25.88;8.90;;;23.30;90.10;;;;;;4972606;28;19980;-79
2022/08/15 05:30:58;;;;;;;18.35;8.32;;;23.40;89.90;;;;;;4972404;28;20401;-79
2022/08/15 05:33:27;;;;;;;16.60;7.75;;;23.30;90.10;;;;;;4972852;28;20102;-79
2022/08/15 05:35:55;;;;;;;13.73;7.65;;;23.30;90.20;;;;;;4972556;28;20027;-79
2022/08/15 05:38:30;;;;;;;18.23;7.70;;;23.30;90.20;;;;;;4972364;28;20026;-80
2022/08/15 05:41:21;;;;;;;13.48;7.95;;;23.40;90.20;;;;;;4972779;28;20362;-80
2022/08/15 05:43:55;;;;;;;12.52;7.97;;;23.40;90.20;;;;;;4972662;28;20047;-79
2022/08/15 05:46:36;;;;;;;17.60;8.30;;;23.40;90.10;;;;;;4972601;28;20065;-78
2022/08/15 05:49:22;;;;;;;14.98;8.88;;;23.40;90.20;;;;;;4972639;28;20087;-78
2022/08/15 05:51:54;;;;;;;16.90;7.93;;;23.40;90.20;;;;;;4972522;28;20039;-79
2022/08/15 05:54:35;;;;;;;12.98;7.95;;;23.50;90.20;;;;;;4987503;28;20350;-80
2022/08/15 05:57:12;;;;;;;11.57;7.10;;;23.50;90.30;;;;;;4972393;28;20274;-79
2022/08/15 05:59:48;;;;;;;15.48;7.63;;;23.50;90.20;;;;;;4972518;28;20109;-80
2022/08/15 06:02:20;;;;;;;13.60;7.82;;;23.50;90.10;;;;;;4972167;28;20026;-78
2022/08/15 06:04:53;;;;;;;15.63;8.02;;;23.50;89.80;;;;;;4972710;28;20437;-80
2022/08/15 06:07:20;;;;;;;12.90;7.47;;;23.50;90.30;;;;;;4972347;28;20039;-80
2022/08/15 06:10:11;;;;;;;11.95;7.38;;;23.50;90.30;;;;;;4972467;28;20043;-81
2022/08/15 06:12:43;;;;;;;12.27;7.82;;;23.50;90.70;;;;;;4972424;28;20035;-79
2022/08/15 06:15:46;;;;;;;9.52;7.35;;;23.50;90.50;;;;;;4972390;28;20124;-80
2022/08/15 06:18:14;;;;;;;13.73;7.80;;;23.50;90.30;;;;;;4969464;28;20365;-79
2022/08/15 06:21:00;;;;;;;;;;;23.50;90.50;;;;;;4972737;28;20027;-80
2022/08/15 06:24:07;;;;;;;19.42;8.40;;;23.60;90.50;;;;;;4972299;28;20348;-80
2022/08/15 06:26:39;;;;;;;10.35;7.25;;;23.60;90.40;;;;;;4949431;28;20375;-80
2022/08/15 06:29:36;;;;;;;10.77;6.72;;;23.60;90.30;;;;;;4972548;28;20059;-80
2022/08/15 06:32:21;;;;;;;11.70;6.90;;;23.60;90.00;;;;;;4972553;28;20040;-80
2022/08/15 06:35:25;;;;;;;13.60;7.20;;;23.60;90.00;;;;;;4972049;28;20027;-80
2022/08/15 06:38:19;;;;;;;14.63;8.43;;;23.60;89.80;;;;;;4965558;28;20058;-78
2022/08/15 06:40:47;;;;;;;18.17;10.55;;;23.70;90.00;;;;;;4972940;28;20042;-80
2022/08/15 06:43:13;;;;;;;15.20;8.63;;;23.70;89.80;;;;;;4987372;28;20027;-80
2022/08/15 06:45:43;;;;;;;10.88;7.63;;;23.70;89.70;;;;;;4972477;28;20365;-79
2022/08/15 06:48:13;;;;;;;12.43;7.28;;;23.80;89.90;;;;;;4971181;28;20154;-79
2022/08/15 06:50:55;;;;;;;24.95;9.68;;;23.70;90.00;;;;;;4970806;28;20173;-79
2022/08/15 06:53:22;;;;;;;26.17;8.68;;;23.70;90.60;;;;;;4972131;28;20026;-79
2022/08/15 06:55:48;;;;;;;;;;;23.80;90.30;;;;;;4972915;28;20038;-80
2022/08/15 06:58:20;;;;;;;13.20;7.30;;;23.80;90.20;;;;;;4971924;28;19914;-79
2022/08/15 07:00:56;;;;;;;20.48;10.80;;;23.80;90.30;;;;;;4975559;28;20027;-79
2022/08/15 07:04:04;;;;;;;15.90;8.20;;;23.90;90.40;;;;;;4975217;28;20046;-79
2022/08/15 07:06:39;;;;;;;9.25;7.40;;;23.90;90.30;;;;;;4985842;28;20093;-79
2022/08/15 07:09:29;;;;;;;11.88;6.88;;;23.90;90.40;;;;;;4974379;28;20082;-78
2022/08/15 07:12:42;;;;;;;16.20;7.97;;;24.00;90.50;;;;;;4975359;28;20117;-80
2022/08/15 07:15:57;;;;;;;14.88;7.75;;;24.00;90.50;;;;;;4970395;28;20117;-79
2022/08/15 07:18:35;;;;;;;18.52;7.72;;;24.10;90.40;;;;;;4965869;28;20034;-79
2022/08/15 07:21:02;;;;;;;;;;;24.10;90.30;;;;;;4975658;28;20058;-79
2022/08/15 07:23:30;;;;;;;14.82;7.68;;;24.20;90.30;;;;;;4975105;28;19929;-78
2022/08/15 07:26:02;;;;;;;22.48;8.65;;;24.20;90.20;;;;;;4975374;28;20027;-78
2022/08/15 07:28:30;;;;;;;16.40;7.13;;;24.20;90.30;;;;;;4975004;28;20038;-79
2022/08/15 07:31:14;;;;;;;11.93;7.18;;;24.20;90.30;;;;;;4975025;28;20118;-80
2022/08/15 07:33:44;;;;;;;14.02;7.68;;;24.30;90.20;;;;;;4975095;28;20096;-80
2022/08/15 07:36:23;;;;;;;12.35;8.10;;;24.30;90.20;;;;;;4974752;28;20046;-80
2022/08/15 07:38:49;;;;;;;15.85;8.00;;;24.40;89.90;;;;;;4974622;28;20105;-79
2022/08/15 07:41:23;;;;;;;21.48;8.80;;;24.40;90.00;;;;;;4974589;28;20085;-79
2022/08/15 07:44:15;;;;;;;21.98;8.30;;;24.40;90.30;;;;;;4990392;28;20031;-79
2022/08/15 07:46:50;;;;;;;17.58;8.68;;;24.40;89.40;;;;;;4990060;28;20082;-79
2022/08/15 07:49:20;;;;;;;14.52;7.57;;;24.50;89.40;;;;;;4974819;28;20031;-80
2022/08/15 07:51:57;;;;;;;12.23;7.93;;;24.50;89.70;;;;;;4974921;28;20027;-79
2022/08/15 07:54:25;;;;;;;12.90;7.53;;;24.60;89.50;;;;;;4974215;28;20099;-79
2022/08/15 07:56:58;;;;;;;;;;;24.60;89.50;;;;;;4974859;28;20038;-80
2022/08/15 07:59:30;;;;;;;11.27;7.57;;;24.70;89.70;;;;;;4974799;28;20016;-80
2022/08/15 08:02:25;;;;;;;14.75;7.38;;;24.90;89.30;;;;;;4973916;28;20053;-80
2022/08/15 08:04:51;;;;;;;20.75;7.50;;;25.00;89.00;;;;;;4974338;28;20394;-79
2022/08/15 08:07:37;;;;;;;14.60;7.85;;;25.10;89.00;;;;;;4974336;28;20374;-80
2022/08/15 08:10:29;;;;;;;17.88;11.25;;;25.30;88.70;;;;;;4974214;28;20109;-79
2022/08/15 08:13:13;;;;;;;13.45;7.60;;;25.50;88.00;;;;;;4974005;28;20037;-79
2022/08/15 08:16:01;;;;;;;12.13;7.65;;;25.60;87.90;;;;;;4974108;28;20473;-79
2022/08/15 08:18:32;;;;;;;11.23;7.43;;;25.70;87.50;;;;;;4973886;28;20418;-79
2022/08/15 08:21:09;;;;;;;9.95;7.18;;;25.80;86.80;;;;;;4989010;28;20038;-79
2022/08/15 08:23:45;;;;;;;16.13;7.28;;;25.90;86.90;;;;;;4973960;28;20389;-80
2022/08/15 08:26:32;;;;;;;18.88;8.35;;;25.90;86.90;;;;;;4973730;28;20421;-79
2022/08/15 08:29:16;;;;;;;14.77;7.13;;;26.00;87.00;;;;;;4974203;28;20062;-79
2022/08/15 08:32:01;;;;;;;12.10;7.85;;;26.10;86.60;;;;;;4973994;28;20030;-79
2022/08/15 08:34:46;;;;;;;10.98;7.25;;;26.30;86.40;;;;;;4973801;28;20031;-80
2022/08/15 08:37:23;;;;;;;11.30;6.82;;;26.40;85.60;;;;;;4974086;28;20043;-78
2022/08/15 08:43:41;;;;;;;11.32;6.78;;;27.40;84.80;;;;;;4973712;28;20130;-81
2022/08/15 08:46:28;;;;;;;11.25;6.97;;;27.70;80.70;;;;;;4973803;28;20035;-80
2022/08/15 08:49:02;;;;;;;9.93;7.03;;;28.00;80.40;;;;;;4973712;28;20031;-80
2022/08/15 08:51:41;;;;;;;11.35;7.25;;;28.20;80.50;;;;;;4973601;28;20033;-80
2022/08/15 08:54:28;;;;;;;12.88;6.97;;;29.00;79.10;;;;;;4973976;28;20312;-80
2022/08/15 08:56:57;;;;;;;;;;;29.50;76.80;;;;;;4974226;28;20065;-80
2022/08/15 09:00:00;;;;;;;14.60;7.28;;;29.70;74.40;;;;;;4973383;28;19914;-82
2022/08/15 09:02:30;;;;;;;13.18;7.32;;;30.00;74.80;;;;;;4988652;28;20093;-80
2022/08/15 09:05:01;;;;;;;12.30;7.07;;;30.50;73.20;;;;;;4973950;28;20242;-81
2022/08/15 09:07:32;;;;;;;11.80;6.93;;;31.00;72.00;;;;;;4973153;28;20093;-80
2022/08/15 09:10:00;;;;;;;19.77;7.60;;;31.60;68.90;;;;;;4973069;28;20047;-79
2022/08/15 09:15:24;;;;;;;9.93;7.10;;;33.10;67.90;;;;;;4973089;28;20046;-81
2022/08/15 09:17:54;;;;;;;14.68;7.00;;;33.10;64.30;;;;;;4972903;28;20041;-80
2022/08/15 09:20:25;;;;;;;11.57;7.13;;;33.10;62.90;;;;;;4973170;28;20050;-80
2022/08/15 09:22:51;;;;;;;15.68;10.10;;;32.60;62.90;;;;;;4973504;28;20053;-79
2022/08/15 09:25:18;;;;;;;7.90;7.10;;;32.60;64.60;;;;;;4972762;28;20132;-80
2022/08/15 09:28:07;;;;;;;8.65;7.15;;;32.70;64.80;;;;;;4972908;28;20158;-80
2022/08/15 09:30:34;;;;;;;9.40;6.35;;;33.30;62.00;;;;;;4972756;28;20125;-79
2022/08/15 09:33:33;;;;;;;10.13;6.82;;;34.30;62.70;;;;;;4972716;28;20027;-81
2022/08/15 09:36:20;;;;;;;9.32;6.68;;;34.70;57.50;;;;;;4972852;28;20038;-79
2022/08/15 09:39:21;;;;;;;13.40;6.43;;;35.20;58.70;;;;;;4987473;28;20418;-78
2022/08/15 09:42:25;;;;;;;9.85;6.32;;;36.00;55.30;;;;;;4963613;28;20045;-78
2022/08/15 09:45:10;;;;;;;8.57;6.72;;;35.90;54.70;;;;;;4972276;28;20105;-78
2022/08/15 09:47:59;;;;;;;15.50;7.25;;;36.10;54.60;;;;;;4972398;28;20039;-82
2022/08/15 09:50:34;;;;;;;12.55;6.93;;;35.70;54.50;;;;;;4972231;28;20046;-79
2022/08/15 09:53:08;;;;;;;12.13;6.90;;;35.10;55.50;;;;;;4972974;28;20027;-78
2022/08/15 09:55:46;;;;;;;11.43;6.78;;;35.00;54.80;;;;;;4971933;28;20034;-77
2022/08/15 09:58:20;;;;;;;13.50;7.28;;;35.10;55.10;;;;;;4971089;28;20547;-77
2022/08/15 10:01:14;;;;;;;11.93;7.57;;;35.20;54.00;;;;;;4972179;28;20042;-78
2022/08/15 10:03:46;;;;;;;12.48;7.03;;;34.80;54.00;;;;;;4972184;28;20369;-78
2022/08/15 10:06:16;;;;;;;11.55;6.82;;;34.50;54.50;;;;;;4987733;28;20113;-78
2022/08/15 10:08:53;;;;;;;12.25;6.78;;;34.00;54.90;;;;;;4972333;28;20464;-80
2022/08/15 10:11:38;;;;;;;10.85;7.10;;;33.70;55.70;;;;;;4987977;28;20034;-78
2022/08/15 10:14:06;;;;;;;10.38;7.35;;;33.40;55.80;;;;;;4973704;28;20268;-77
2022/08/15 10:16:39;;;;;;;14.40;7.68;;;33.30;56.50;;;;;;4972580;28;20042;-79
2022/08/15 10:19:09;;;;;;;15.75;7.63;;;33.10;56.50;;;;;;4972499;28;20059;-76
2022/08/15 10:21:41;;;;;;;22.90;7.85;;;32.90;56.50;;;;;;4972423;28;20061;-77
2022/08/15 10:24:34;;;;;;;13.65;7.22;;;32.90;57.10;;;;;;4971216;28;20097;-78
2022/08/15 10:27:22;;;;;;;25.85;7.68;;;33.00;57.20;;;;;;4971211;28;20573;-76
2022/08/15 10:29:52;;;;;;;17.60;7.20;;;32.80;57.20;;;;;;4972025;28;20049;-78
2022/08/15 10:32:29;;;;;;;12.85;7.20;;;32.40;57.30;;;;;;4971859;28;20033;-77
2022/08/15 10:35:01;;;;;;;;;;;32.50;57.80;;;;;;4975237;28;20111;-79
2022/08/15 10:37:51;;;;;;;15.60;7.60;;;32.60;57.50;;;;;;4975826;28;19997;-79
2022/08/15 10:40:29;;;;;;;13.98;8.23;;;32.60;58.00;;;;;;4975637;28;20058;-79
2022/08/15 10:43:39;;;;;;;12.55;6.40;;;32.50;58.00;;;;;;4975676;28;20087;-77
2022/08/15 10:46:26;;;;;;;11.50;6.65;;;32.40;57.20;;;;;;4975810;28;20121;-78
2022/08/15 10:49:34;;;;;;;14.68;6.95;;;32.40;56.80;;;;;;4975789;28;20042;-78
2022/08/15 10:52:26;;;;;;;12.77;7.28;;;32.40;56.60;;;;;;4975306;28;20042;-78
2022/08/15 10:55:17;;;;;;;13.85;6.82;;;32.20;56.60;;;;;;4975483;28;20077;-78
2022/08/15 10:57:50;;;;;;;16.02;9.68;;;32.00;56.80;;;;;;4975338;28;20027;-78
2022/08/15 11:00:42;;;;;;;14.27;7.78;;;32.10;57.20;;;;;;4974528;28;20412;-77
2022/08/15 11:03:39;;;;;;;13.45;6.47;;;32.20;57.60;;;;;;4965572;28;20512;-79
2022/08/15 11:06:12;;;;;;;;;;;32.30;57.10;;;;;;4972552;28;20120;-79
2022/08/15 11:08:46;;;;;;;13.85;7.40;;;32.30;57.30;;;;;;4974783;28;19910;-78
2022/08/15 11:11:13;;;;;;;20.67;9.10;;;32.40;57.30;;;;;;4975563;28;20031;-77
2022/08/15 11:13:43;;;;;;;11.65;6.18;;;32.60;56.70;;;;;;4975574;28;20033;-80
2022/08/15 11:16:14;;;;;;;9.48;6.55;;;32.70;55.50;;;;;;4974924;28;20038;-78
2022/08/15 11:18:54;;;;;;;11.23;7.15;;;32.80;55.50;;;;;;4974721;28;20110;-79
2022/08/15 11:21:28;;;;;;;11.48;6.90;;;32.90;55.40;;;;;;4974837;28;20061;-77
2022/08/15 11:23:58;;;;;;;17.25;7.00;;;33.00;55.00;;;;;;4975031;28;20409;-78
2022/08/15 11:26:27;;;;;;;10.30;6.57;;;32.80;55.00;;;;;;4976293;28;20027;-77
2022/08/15 11:29:08;;;;;;;11.88;7.25;;;32.80;54.90;;;;;;4975487;28;20134;-76
2022/08/15 11:31:47;;;;;;;9.73;5.90;;;32.90;54.70;;;;;;4974487;28;20243;-78
2022/08/15 11:34:41;;;;;;;27.23;12.02;;;32.90;54.30;;;;;;4973292;28;20042;-78
2022/08/15 11:37:18;;;;;;;9.15;6.32;;;33.10;54.60;;;;;;4974210;28;20128;-78
2022/08/15 11:40:05;;;;;;;17.50;6.03;;;33.20;54.20;;;;;;4974717;28;20370;-77
2022/08/15 11:42:38;;;;;;;14.50;5.75;;;33.30;53.20;;;;;;4973431;28;20039;-78
2022/08/15 11:45:14;;;;;;;19.65;6.30;;;33.20;52.00;;;;;;4974177;28;20480;-77
2022/08/15 11:47:47;;;;;;;10.20;6.15;;;33.10;52.20;;;;;;4974525;28;20077;-77
2022/08/15 11:50:35;;;;;;;8.18;6.05;;;33.10;53.10;;;;;;4974350;28;20031;-78
2022/08/15 11:53:05;;;;;;;8.75;5.47;;;33.00;52.10;;;;;;4974524;28;20022;-76
2022/08/15 11:55:32;;;;;;;9.45;5.80;;;32.90;51.90;;;;;;4974352;28;20302;-76
2022/08/15 11:58:13;;;;;;;11.13;5.65;;;32.90;52.20;;;;;;4974290;28;20041;-78
2022/08/15 12:00:51;;;;;;;9.65;6.90;;;32.70;52.70;;;;;;4974431;28;20078;-78
2022/08/15 12:03:23;;;;;;;15.95;6.65;;;32.60;53.10;;;;;;4974626;28;20058;-78
2022/08/15 12:05:59;;;;;;;7.85;5.78;;;32.40;52.40;;;;;;4973808;28;20665;-78
2022/08/15 12:08:30;;;;;;;9.10;5.55;;;32.30;52.90;;;;;;4974046;28;20027;-78
2022/08/15 12:11:13;;;;;;;10.68;5.80;;;32.20;53.70;;;;;;4974692;28;20496;-79
2022/08/15 12:14:04;;;;;;;12.82;6.90;;;32.10;54.20;;;;;;4974031;28;20068;-77
2022/08/15 12:16:33;;;;;;;15.70;6.65;;;32.00;54.70;;;;;;4973907;28;20365;-77
2022/08/15 12:19:37;;;;;;;11.77;6.90;;;31.90;54.90;;;;;;4973811;28;20165;-77
2022/08/15 12:22:15;;;;;;;10.77;7.03;;;31.80;55.60;;;;;;4973603;28;20126;-77
2022/08/15 12:24:45;;;;;;;13.10;7.88;;;31.50;56.90;;;;;;4973523;28;20035;-77
2022/08/15 12:27:11;;;;;;;13.80;8.20;;;31.50;57.60;;;;;;4972468;28;20422;-76
2022/08/15 12:29:39;;;;;;;10.10;7.63;;;31.40;59.40;;;;;;4973514;28;20031;-78
2022/08/15 12:32:07;;;;;;;9.77;8.32;;;31.20;61.00;;;;;;4973930;28;20484;-78
2022/08/15 12:34:40;;;;;;;16.50;8.48;;;31.10;62.20;;;;;;4973991;28;20093;-77
2022/08/15 12:37:16;;;;;;;8.70;7.80;;;31.00;61.70;;;;;;4973711;28;20528;-77
2022/08/15 12:39:45;;;;;;;17.83;9.10;;;30.90;60.90;;;;;;4973762;28;20035;-77
2022/08/15 12:42:17;;;;;;;9.45;8.27;;;30.90;60.60;;;;;;4973121;28;20484;-78
2022/08/15 12:44:46;;;;;;;11.18;6.65;;;30.90;60.20;;;;;;4972291;28;20461;-76
2022/08/15 12:47:13;;;;;;;11.70;6.68;;;30.70;59.30;;;;;;4973467;28;20062;-77
2022/08/15 12:49:38;;;;;;;14.65;8.00;;;30.80;58.80;;;;;;4973572;28;20011;-77
2022/08/15 12:52:05;;;;;;;13.35;6.40;;;30.90;58.40;;;;;;4973264;28;20058;-79
2022/08/15 12:54:30;;;;;;;9.82;6.18;;;30.80;57.80;;;;;;4973263;28;20089;-79
2022/08/15 12:56:56;;;;;;;8.93;6.70;;;31.00;57.90;;;;;;4972760;28;20389;-79
2022/08/15 12:59:22;;;;;;;14.50;7.22;;;31.10;59.60;;;;;;4973395;28;20039;-78
2022/08/15 13:01:48;;;;;;;9.30;6.95;;;30.90;60.80;;;;;;4972881;28;20015;-80
2022/08/15 13:04:15;;;;;;;11.90;6.30;;;31.00;61.10;;;;;;4972193;28;20062;-77
2022/08/15 13:06:48;;;;;;;8.50;5.93;;;31.00;60.90;;;;;;4973331;28;20109;-79
2022/08/15 13:09:16;;;;;;;10.20;6.65;;;30.90;60.80;;;;;;4973199;28;20043;-77
2022/08/15 13:11:43;;;;;;;11.40;6.18;;;31.10;59.80;;;;;;4973096;28;20062;-76
2022/08/15 13:14:11;;;;;;;10.10;5.30;;;31.10;59.50;;;;;;4988193;28;20085;-77
2022/08/15 13:16:37;;;;;;;10.10;5.80;;;31.20;57.90;;;;;;4973641;28;20019;-81
2022/08/15 13:19:12;;;;;;;10.30;5.47;;;31.20;57.30;;;;;;4972539;28;20117;-77
2022/08/15 13:24:22;;;;;;;14.70;10.82;;;30.80;58.40;;;;;;4972668;28;20101;-77
2022/08/15 13:26:48;;;;;;;9.00;6.95;;;30.60;61.60;;;;;;4972777;28;20038;-78